Lafayette, CA

3:45 PM PDT on August 28, 2016 (GMT -0700)
RAWS | | Change Station

Elev 1759 ft 37.83 °N, 122.07 °W | Updated 1 hour ago

Clear
Clear
81.0 °F
Feels Like 81.0 °F
N
10.0
Wind Variable Wind from WSW
Gusts 16.0 mph

Today
High -- | Low -- °F
--% Chance of Precip.
Yesterday
High -- | Low -- °F
Precip. -- in
Pressure 29.99 in
Visibility 10.0 miles
Clouds Clear
Dew Point 54.0 °F
Humidity 39%
Rainfall in
Snow Depth Not available.
6:35 AM 7:42 PM
Waning Crescent, 13% visible
METAR KCCR 282153Z 32012KT 10SM CLR 28/11 A3002 RMK AO2 SLP153 T02780106
Pressure 29.99 in
Visibility 10.0 miles
Clouds Clear
Dew Point 54.0 °F
Humidity 39%
Rainfall in
Snow Depth Not available.
6:35 AM 7:42 PM
Waning Crescent, 13% visible
METAR KCCR 282153Z 32012KT 10SM CLR 28/11 A3002 RMK AO2 SLP153 T02780106

10-Day Weather Forecast

Almanac

Astronomy

Aug. 28, 2016 Rise Set
Actual Time
Civil Twilight
Nautical Twilight
Astronomical Twilight
Moon
Length of Visible Light
Length of Day
Tomorrow will be .
, % of the Moon is Illuminated

Today's Extremes

State Highs State Lows

Community

WunderPhotos

Upload Photos

1,935,705 photos uploaded!

WunderBlog® & News

Nearby

Air Quality

  Air Quality AQ Index Pollutant
Not available.

Snow Depth

Station Depth Elevation

Earthquake Activity

City Distance Mag. Time & Date
Minimum magnitude displayed is 2.5.

Coastal Water Temperatures

Place Temperature

Stations

Nearby Weather Stations

Station Location Temp. Windchill Dew Point Humidity Wind Precip. Elev Updated Type
                   

Watches & Warnings

There are currently no watches in effect.